Time;durP1;ratioP1;P1;durP2;ratioP2;P2;SDS_P1;SDS_P2;PMS_P1;PMS_P2;Temp;Humidity;BMP_temperature;BMP_pressure;BME280_temperature;BME280_humidity;BME280_pressure;Samples;Min_cycle;Max_cycle;Signal;HPM_P1;HPM_P2
2022/04/29 00:02:02;;;;;;;3.27;1.30;;;17.50;63.90;;;;;;5225076;28;20758;-68
2022/04/29 00:04:54;;;;;;;2.23;1.40;;;17.50;63.30;;;;;;5212718;28;20239;-68
2022/04/29 00:07:46;;;;;;;2.33;1.30;;;17.50;63.30;;;;;;5206368;28;20206;-67
2022/04/29 00:10:39;;;;;;;2.30;1.20;;;17.50;63.30;;;;;;5205930;28;20222;-67
2022/04/29 00:13:31;;;;;;;1.50;1.17;;;17.50;63.40;;;;;;5205217;28;20208;-67
2022/04/29 00:16:25;;;;;;;1.47;1.00;;;17.50;63.30;;;;;;5205649;28;20580;-67
2022/04/29 00:19:18;;;;;;;1.87;1.17;;;17.50;63.30;;;;;;5206504;28;20194;-68
2022/04/29 00:22:11;;;;;;;2.10;1.27;;;17.50;63.20;;;;;;5205856;28;20225;-68
2022/04/29 00:25:03;;;;;;;1.33;0.97;;;17.50;63.30;;;;;;5205904;28;20194;-68
2022/04/29 00:27:56;;;;;;;1.97;1.10;;;17.50;63.30;;;;;;5205975;28;20217;-67
2022/04/29 00:30:48;;;;;;;2.03;0.90;;;17.50;63.30;;;;;;5205045;28;20585;-67
2022/04/29 00:33:40;;;;;;;2.80;1.37;;;17.50;63.20;;;;;;5205083;28;20193;-67
2022/04/29 00:36:34;;;;;;;2.60;1.57;;;17.50;63.20;;;;;;5204789;28;20235;-67
2022/04/29 00:39:26;;;;;;;1.90;1.10;;;17.50;63.20;;;;;;5205114;28;20243;-67
2022/04/29 00:42:21;;;;;;;2.57;1.00;;;17.50;63.20;;;;;;5204845;28;20240;-67
2022/04/29 00:45:15;;;;;;;2.10;1.23;;;17.50;63.30;;;;;;5208742;28;20189;-68
2022/04/29 00:48:09;;;;;;;1.27;1.10;;;17.50;63.30;;;;;;5222124;28;20288;-67
2022/04/29 00:51:01;;;;;;;1.53;1.07;;;17.50;63.20;;;;;;5212131;28;20236;-66
2022/04/29 00:53:56;;;;;;;2.70;1.00;;;17.50;63.30;;;;;;5225351;28;20674;-68
2022/04/29 00:56:52;;;;;;;1.60;1.10;;;17.50;63.10;;;;;;5226118;28;20193;-69
2022/04/29 00:59:50;;;;;;;1.20;0.97;;;17.50;63.20;;;;;;5226116;28;20199;-67
2022/04/29 01:02:46;;;;;;;1.83;1.20;;;17.50;63.20;;;;;;5214506;28;20194;-68
2022/04/29 01:05:39;;;;;;;1.40;1.17;;;17.50;63.30;;;;;;5225245;28;20258;-67
2022/04/29 01:08:31;;;;;;;2.57;1.10;;;17.50;63.20;;;;;;5225161;28;20201;-67
2022/04/29 01:11:26;;;;;;;1.83;1.00;;;17.50;63.20;;;;;;5224914;28;20221;-68
2022/04/29 01:14:19;;;;;;;1.40;1.00;;;17.50;63.20;;;;;;5233495;28;20195;-68
2022/04/29 01:17:11;;;;;;;1.20;0.83;;;17.50;63.10;;;;;;5204854;28;20240;-67
2022/04/29 01:20:04;;;;;;;2.60;1.17;;;17.50;63.20;;;;;;5214962;28;20200;-67
2022/04/29 01:22:58;;;;;;;1.50;1.00;;;17.50;63.20;;;;;;5225630;28;20672;-68
2022/04/29 01:25:50;;;;;;;1.93;0.97;;;17.50;63.10;;;;;;5224956;28;20553;-68
2022/04/29 01:28:45;;;;;;;1.20;0.90;;;17.50;63.10;;;;;;5225466;28;20215;-67
2022/04/29 01:31:39;;;;;;;1.93;1.00;;;17.50;63.10;;;;;;5224808;28;20311;-68
2022/04/29 01:34:31;;;;;;;1.30;1.10;;;17.50;63.20;;;;;;5215029;28;20318;-68
2022/04/29 01:37:23;;;;;;;1.07;0.90;;;17.50;63.20;;;;;;5206569;28;20202;-67
2022/04/29 01:40:17;;;;;;;2.00;1.30;;;17.50;63.20;;;;;;5205089;28;20194;-69
2022/04/29 01:43:09;;;;;;;2.80;1.10;;;17.50;63.20;;;;;;5219320;28;20196;-68
2022/04/29 01:46:01;;;;;;;1.70;1.10;;;17.50;63.20;;;;;;5245857;28;20279;-67
2022/04/29 01:48:54;;;;;;;2.80;1.13;;;17.50;63.10;;;;;;5236404;28;20194;-68
2022/04/29 01:51:46;;;;;;;1.43;1.07;;;17.50;63.20;;;;;;5221593;28;20217;-68
2022/04/29 01:54:38;;;;;;;2.80;1.33;;;17.50;63.10;;;;;;5234645;28;20200;-66
2022/04/29 01:57:31;;;;;;;1.57;1.17;;;17.50;63.20;;;;;;5248256;28;20559;-68
2022/04/29 02:00:24;;;;;;;1.33;1.00;;;17.50;63.20;;;;;;5227744;28;22479;-67
2022/04/29 02:03:16;;;;;;;1.97;1.13;;;17.50;63.10;;;;;;5228343;28;20190;-67
2022/04/29 02:06:08;;;;;;;1.10;1.00;;;17.50;63.10;;;;;;5228532;28;20197;-68
2022/04/29 02:09:00;;;;;;;1.57;0.80;;;17.50;63.10;;;;;;5228713;28;20201;-68
2022/04/29 02:15:03;;;;;;;1.83;0.97;;;17.50;63.20;;;;;;5220425;28;20190;-67
2022/04/29 02:17:55;;;;;;;2.03;1.07;;;17.50;63.20;;;;;;5208432;28;20273;-68
2022/04/29 02:20:49;;;;;;;1.30;0.83;;;17.50;63.10;;;;;;5220845;28;20221;-67
2022/04/29 02:23:41;;;;;;;1.37;1.00;;;17.50;63.10;;;;;;5228501;28;20203;-66
2022/04/29 02:26:33;;;;;;;2.20;0.90;;;17.50;63.10;;;;;;5215286;28;20190;-67
2022/04/29 02:29:27;;;;;;;1.37;1.10;;;17.50;63.10;;;;;;5208185;28;20243;-68
2022/04/29 02:32:21;;;;;;;2.10;0.93;;;17.50;63.10;;;;;;5206901;28;20221;-68
2022/04/29 02:35:14;;;;;;;1.90;1.10;;;17.50;63.20;;;;;;5217022;28;20201;-68
2022/04/29 02:38:06;;;;;;;3.00;1.20;;;17.50;63.00;;;;;;5228026;28;20208;-67
2022/04/29 02:40:58;;;;;;;2.50;0.90;;;17.50;63.10;;;;;;5227826;28;20217;-68
2022/04/29 02:43:51;;;;;;;1.43;1.00;;;17.50;63.10;;;;;;5227937;28;20201;-67
2022/04/29 02:49:50;;;;;;;1.63;0.90;;;17.50;63.10;;;;;;5227250;28;20207;-68
2022/04/29 02:52:42;;;;;;;1.90;1.10;;;17.50;63.10;;;;;;5212176;28;20218;-67
2022/04/29 02:55:34;;;;;;;2.40;1.30;;;17.50;63.10;;;;;;5207154;28;20697;-67
2022/04/29 02:58:26;;;;;;;1.30;0.93;;;17.50;63.00;;;;;;5206918;28;20193;-67
2022/04/29 03:01:18;;;;;;;2.13;1.10;;;17.40;62.90;;;;;;5206554;28;20693;-67
2022/04/29 03:04:14;;;;;;;1.60;0.90;;;17.50;63.10;;;;;;5220199;28;20214;-67
2022/04/29 03:07:07;;;;;;;1.53;0.97;;;17.50;62.90;;;;;;5248205;28;20797;-67
2022/04/29 03:09:59;;;;;;;2.27;1.07;;;17.50;63.00;;;;;;5248249;28;20706;-67
2022/04/29 03:12:51;;;;;;;3.07;1.07;;;17.50;63.00;;;;;;5237032;28;20213;-67
2022/04/29 03:15:44;;;;;;;1.53;1.00;;;17.40;62.90;;;;;;5217905;28;20190;-68
2022/04/29 03:18:36;;;;;;;1.10;0.90;;;17.40;62.90;;;;;;5207267;28;20197;-67
2022/04/29 03:21:28;;;;;;;1.40;0.87;;;17.50;62.90;;;;;;5206154;28;20596;-67
2022/04/29 03:24:21;;;;;;;1.83;1.07;;;17.40;62.90;;;;;;5211118;28;20193;-67
2022/04/29 03:27:13;;;;;;;1.87;1.07;;;17.50;63.00;;;;;;5218122;28;20684;-67
2022/04/29 03:30:07;;;;;;;1.60;1.00;;;17.40;63.00;;;;;;5226798;28;20189;-67
2022/04/29 03:33:01;;;;;;;1.07;0.97;;;17.40;62.90;;;;;;5224742;28;20331;-68
2022/04/29 03:35:53;;;;;;;1.00;0.90;;;17.40;63.00;;;;;;5226702;28;20189;-67
2022/04/29 03:38:46;;;;;;;1.10;0.80;;;17.50;62.90;;;;;;5226527;28;20218;-68
2022/04/29 03:41:39;;;;;;;2.13;1.40;;;17.50;62.90;;;;;;5226425;28;20213;-67
2022/04/29 03:44:31;;;;;;;1.27;1.00;;;17.50;62.80;;;;;;5226861;28;20604;-68
2022/04/29 03:47:24;;;;;;;1.93;1.00;;;17.50;62.80;;;;;;5212103;28;20251;-68
2022/04/29 03:50:16;;;;;;;2.03;1.20;;;17.50;62.70;;;;;;5212070;28;20207;-68
2022/04/29 03:53:09;;;;;;;2.00;1.00;;;17.50;62.80;;;;;;5205858;28;20232;-68
2022/04/29 03:56:01;;;;;;;1.23;0.90;;;17.50;62.70;;;;;;5223773;28;20280;-68
2022/04/29 03:58:54;;;;;;;2.57;1.10;;;17.50;62.70;;;;;;5222611;28;20209;-68
2022/04/29 04:01:46;;;;;;;1.67;0.80;;;17.60;62.70;;;;;;5245555;22;20228;-63
2022/04/29 04:04:38;;;;;;;1.77;0.90;;;17.50;62.70;;;;;;5226463;28;20688;-63
2022/04/29 04:07:30;;;;;;;1.73;1.03;;;17.60;62.80;;;;;;5230161;28;20200;-63
2022/04/29 04:10:22;;;;;;;2.47;1.20;;;17.60;62.70;;;;;;5239977;28;20371;-63
2022/04/29 04:13:15;;;;;;;1.13;0.80;;;17.60;62.70;;;;;;5215529;28;20696;-63
2022/04/29 04:16:09;;;;;;;2.73;0.93;;;17.50;62.70;;;;;;5225615;28;20204;-65
2022/04/29 04:19:01;;;;;;;2.40;0.93;;;17.60;62.70;;;;;;5206020;28;20200;-64
2022/04/29 04:21:53;;;;;;;1.87;1.07;;;17.50;62.70;;;;;;5224689;28;20224;-64
2022/04/29 04:24:45;;;;;;;1.63;0.80;;;17.60;62.70;;;;;;5224676;28;20192;-64
2022/04/29 04:27:37;;;;;;;1.90;1.07;;;17.50;62.60;;;;;;5224824;28;20353;-64
2022/04/29 04:30:29;;;;;;;2.40;1.43;;;17.50;62.70;;;;;;5224487;28;20189;-64
2022/04/29 04:33:23;;;;;;;2.30;0.80;;;17.50;62.60;;;;;;5223683;28;20227;-64
2022/04/29 04:36:15;;;;;;;1.10;1.00;;;17.60;62.70;;;;;;5224392;28;20197;-64
2022/04/29 04:39:07;;;;;;;2.00;1.00;;;17.60;62.70;;;;;;5204741;28;20190;-63
2022/04/29 04:41:59;;;;;;;2.17;0.90;;;17.60;62.70;;;;;;5204830;28;20688;-64
2022/04/29 04:44:52;;;;;;;2.67;1.10;;;17.60;62.70;;;;;;5204937;28;20581;-64
2022/04/29 04:47:44;;;;;;;1.40;1.10;;;17.50;62.60;;;;;;5206560;28;20277;-64
2022/04/29 04:50:38;;;;;;;1.10;0.80;;;17.50;62.60;;;;;;5208429;28;20189;-64
2022/04/29 04:53:30;;;;;;;1.67;1.30;;;17.50;62.60;;;;;;5217140;28;20711;-64
2022/04/29 04:56:22;;;;;;;1.40;0.93;;;17.60;63.20;;;;;;5223435;28;20196;-64
2022/04/29 04:59:14;;;;;;;2.93;1.73;;;17.60;62.60;;;;;;5214940;28;20675;-63
2022/04/29 05:02:06;;;;;;;3.57;3.10;;;17.60;61.70;;;;;;5211813;28;20225;-62
2022/04/29 05:04:59;;;;;;;5.23;3.90;;;17.50;58.80;;;;;;5205635;28;20686;-64
2022/04/29 05:07:52;;;;;;;4.73;3.50;;;17.40;56.10;;;;;;5215741;28;20565;-64
2022/04/29 05:10:47;;;;;;;4.67;3.93;;;17.20;55.10;;;;;;5222477;28;20679;-64
2022/04/29 05:13:39;;;;;;;4.70;4.00;;;17.20;54.20;;;;;;5224326;28;20248;-64
2022/04/29 05:16:31;;;;;;;4.60;3.67;;;17.10;53.50;;;;;;5226054;28;20201;-65
2022/04/29 05:19:23;;;;;;;4.33;3.80;;;17.10;53.00;;;;;;5218668;28;20661;-64
2022/04/29 05:22:15;;;;;;;3.60;3.30;;;17.00;52.90;;;;;;5205811;28;20213;-64
2022/04/29 05:25:10;;;;;;;4.53;3.63;;;17.00;52.50;;;;;;5208853;28;20204;-64
2022/04/29 05:28:04;;;;;;;4.43;3.03;;;16.90;52.40;;;;;;5225470;28;20260;-64
2022/04/29 05:30:57;;;;;;;4.20;3.33;;;16.80;52.30;;;;;;5208360;28;20336;-64
2022/04/29 05:33:49;;;;;;;4.90;3.80;;;16.80;52.30;;;;;;5217896;28;20364;-65
2022/04/29 05:36:41;;;;;;;3.43;3.13;;;16.70;52.00;;;;;;5229732;28;20207;-65
2022/04/29 05:42:45;;;;;;;4.43;3.53;;;16.60;52.10;;;;;;5216524;28;20205;-64
2022/04/29 05:45:37;;;;;;;5.03;3.10;;;16.70;53.20;;;;;;5220621;28;20197;-64
2022/04/29 05:48:29;;;;;;;3.50;2.90;;;16.70;54.10;;;;;;5218396;28;20202;-64
2022/04/29 05:51:21;;;;;;;3.70;3.10;;;16.70;54.20;;;;;;5216789;28;20214;-64
2022/04/29 05:54:13;;;;;;;4.37;3.30;;;16.70;54.20;;;;;;5219321;28;20186;-65
2022/04/29 05:57:06;;;;;;;3.93;3.20;;;16.70;54.30;;;;;;5222738;28;20193;-64
2022/04/29 06:00:00;;;;;;;3.37;3.07;;;16.80;54.60;;;;;;5222929;28;20204;-64
2022/04/29 06:02:52;;;;;;;3.90;2.67;;;16.80;54.40;;;;;;5226134;28;20232;-65
2022/04/29 06:05:44;;;;;;;4.63;2.40;;;16.80;54.50;;;;;;5225525;28;20230;-65
2022/04/29 06:08:36;;;;;;;3.37;2.27;;;16.80;54.60;;;;;;5222211;28;20194;-64
2022/04/29 06:11:28;;;;;;;3.90;2.10;;;16.90;55.20;;;;;;5217881;28;20565;-62
2022/04/29 06:14:20;;;;;;;3.47;2.00;;;16.90;55.40;;;;;;5227950;28;20660;-63
2022/04/29 06:17:14;;;;;;;3.30;2.17;;;17.00;55.70;;;;;;5207840;28;20588;-63
2022/04/29 06:20:08;;;;;;;2.10;1.70;;;17.00;56.00;;;;;;5208042;28;20281;-64
2022/04/29 06:23:00;;;;;;;2.37;1.77;;;17.10;56.30;;;;;;5210553;28;20197;-64
2022/04/29 06:25:53;;;;;;;2.47;1.80;;;17.10;56.50;;;;;;5227547;28;20219;-64
2022/04/29 06:28:45;;;;;;;3.10;2.00;;;17.10;57.40;;;;;;5210005;28;20271;-63
2022/04/29 06:31:38;;;;;;;2.27;1.80;;;17.20;57.10;;;;;;5207024;28;20705;-64
2022/04/29 06:34:31;;;;;;;2.73;1.67;;;17.20;57.30;;;;;;5206366;28;20197;-63
2022/04/29 06:37:23;;;;;;;2.57;1.83;;;17.20;57.50;;;;;;5207067;28;20681;-63
2022/04/29 06:40:15;;;;;;;2.07;1.50;;;17.20;57.70;;;;;;5207040;28;20198;-64
2022/04/29 06:43:07;;;;;;;2.40;1.80;;;17.20;57.90;;;;;;5207064;28;20190;-64
2022/04/29 06:46:00;;;;;;;2.77;1.50;;;17.30;58.00;;;;;;5210962;28;20199;-64
2022/04/29 06:48:53;;;;;;;1.67;1.47;;;17.30;58.20;;;;;;5226576;28;20278;-64
2022/04/29 06:51:46;;;;;;;2.50;1.50;;;17.30;58.40;;;;;;5212115;28;20218;-64
2022/04/29 06:54:38;;;;;;;1.93;1.70;;;17.30;58.60;;;;;;5206899;28;20201;-64
2022/04/29 06:57:31;;;;;;;1.53;1.40;;;17.30;58.70;;;;;;5207600;28;20688;-64
2022/04/29 07:00:23;;;;;;;3.67;1.60;;;17.30;58.90;;;;;;5222076;28;20216;-64
2022/04/29 07:03:15;;;;;;;2.90;1.63;;;17.30;59.00;;;;;;5227389;28;20272;-64
2022/04/29 07:06:07;;;;;;;1.50;1.40;;;17.30;59.10;;;;;;5226873;28;20193;-64
2022/04/29 07:09:02;;;;;;;1.57;1.30;;;17.30;59.20;;;;;;5228253;28;20662;-64
2022/04/29 07:11:55;;;;;;;2.10;1.50;;;17.30;59.30;;;;;;5216872;28;20599;-64
2022/04/29 07:14:47;;;;;;;1.90;1.33;;;17.30;59.40;;;;;;5207668;28;20189;-64
2022/04/29 07:17:39;;;;;;;2.23;1.57;;;17.30;59.50;;;;;;5206987;28;20277;-64
2022/04/29 07:20:31;;;;;;;2.63;1.47;;;17.30;59.50;;;;;;5226025;28;20247;-64
2022/04/29 07:23:24;;;;;;;2.20;1.50;;;17.30;59.60;;;;;;5206174;28;20205;-63
2022/04/29 07:26:17;;;;;;;1.70;1.40;;;17.30;59.70;;;;;;5217116;28;20664;-64
2022/04/29 07:29:09;;;;;;;1.97;1.23;;;17.40;59.80;;;;;;5219332;28;20671;-63
2022/04/29 07:32:01;;;;;;;1.90;1.20;;;17.40;59.90;;;;;;5227103;28;20262;-63
2022/04/29 07:44:24;;;;;;;2.97;1.57;;;17.40;60.20;;;;;;5218277;28;20185;-64
2022/04/29 07:47:16;;;;;;;1.90;1.53;;;17.40;60.30;;;;;;5226461;28;20266;-63
2022/04/29 07:50:10;;;;;;;1.60;1.23;;;17.40;60.40;;;;;;5226018;28;20839;-64
2022/04/29 07:53:04;;;;;;;2.93;1.60;;;17.40;60.40;;;;;;5213018;28;20214;-64
2022/04/29 07:55:56;;;;;;;3.20;1.40;;;17.40;60.50;;;;;;5222143;28;20197;-64
2022/04/29 07:58:48;;;;;;;1.67;1.23;;;17.40;60.50;;;;;;5225748;28;20203;-64
2022/04/29 08:01:43;;;;;;;1.60;1.50;;;17.40;60.60;;;;;;5204958;28;20221;-63
2022/04/29 08:04:36;;;;;;;1.47;1.37;;;17.40;60.60;;;;;;5220653;28;20292;-64
2022/04/29 08:07:28;;;;;;;2.10;1.27;;;17.40;60.70;;;;;;5225113;28;20193;-64
2022/04/29 08:10:20;;;;;;;1.53;1.40;;;17.40;60.70;;;;;;5221911;28;20193;-64
2022/04/29 08:13:13;;;;;;;1.70;1.20;;;17.40;60.80;;;;;;5224557;28;20600;-64
2022/04/29 08:16:05;;;;;;;1.30;1.13;;;17.40;60.80;;;;;;5224867;28;20668;-64
2022/04/29 08:18:59;;;;;;;1.83;1.20;;;17.40;60.90;;;;;;5223993;28;20197;-64
2022/04/29 08:21:51;;;;;;;1.90;1.33;;;17.40;60.90;;;;;;5224346;28;20209;-63
2022/04/29 08:24:43;;;;;;;1.77;1.37;;;17.40;61.00;;;;;;5223968;28;20200;-64
2022/04/29 08:27:35;;;;;;;1.20;1.10;;;17.40;61.00;;;;;;5224220;28;20197;-64
2022/04/29 08:30:30;;;;;;;2.70;1.20;;;17.40;61.10;;;;;;5224689;28;20667;-64
2022/04/29 08:33:24;;;;;;;2.70;1.13;;;17.40;61.10;;;;;;5224008;28;20209;-64
2022/04/29 08:36:17;;;;;;;1.67;1.43;;;17.40;61.10;;;;;;5224644;28;20207;-63
2022/04/29 08:39:09;;;;;;;1.93;1.10;;;17.40;61.10;;;;;;5223041;28;20201;-64
2022/04/29 08:42:03;;;;;;;1.73;1.50;;;17.40;61.10;;;;;;5220169;28;20218;-64
2022/04/29 08:44:56;;;;;;;3.17;1.77;;;17.40;61.10;;;;;;5204626;28;20684;-64
2022/04/29 08:47:48;;;;;;;1.33;0.97;;;17.40;61.20;;;;;;5205554;28;20198;-64
2022/04/29 08:50:40;;;;;;;1.80;1.30;;;17.40;61.30;;;;;;5208598;28;20199;-63
2022/04/29 08:53:34;;;;;;;1.40;1.00;;;17.40;61.30;;;;;;5219189;28;20278;-63
2022/04/29 08:59:37;;;;;;;3.53;1.40;;;17.40;61.30;;;;;;5224884;28;20185;-64
2022/04/29 09:02:29;;;;;;;1.80;1.30;;;17.40;61.30;;;;;;5222037;28;20232;-63
2022/04/29 09:05:21;;;;;;;1.33;1.10;;;17.50;61.30;;;;;;5212303;28;20737;-64
2022/04/29 09:08:14;;;;;;;1.00;0.90;;;17.50;61.40;;;;;;5225471;28;20258;-63
2022/04/29 09:11:09;;;;;;;2.17;1.03;;;17.40;61.40;;;;;;5225098;28;20224;-63
2022/04/29 09:14:19;;;;;;;1.47;1.17;;;17.50;61.50;;;;;;5205151;28;20339;-64
2022/04/29 09:17:26;;;;;;;1.10;1.00;;;17.40;61.50;;;;;;5204569;28;20190;-64
2022/04/29 09:20:21;;;;;;;0.93;0.87;;;17.50;61.60;;;;;;5204881;28;20200;-63
2022/04/29 09:23:17;;;;;;;1.10;1.00;;;17.40;61.60;;;;;;5206607;28;20197;-64
2022/04/29 09:26:20;;;;;;;1.13;0.97;;;17.40;61.50;;;;;;5209298;28;20184;-62
2022/04/29 09:29:14;;;;;;;2.03;1.03;;;17.40;61.50;;;;;;5224631;28;20196;-61
2022/04/29 09:32:08;;;;;;;1.67;1.00;;;17.40;61.50;;;;;;5220379;28;20720;-62
2022/04/29 09:35:00;;;;;;;4.57;1.10;;;17.50;61.70;;;;;;5223283;28;20581;-62
2022/04/29 09:41:00;;;;;;;1.53;0.90;;;17.50;61.80;;;;;;5223060;28;20205;-63
2022/04/29 09:43:53;;;;;;;1.63;1.10;;;17.50;61.90;;;;;;5223048;28;20276;-63
2022/04/29 09:46:45;;;;;;;1.33;1.10;;;17.60;61.80;;;;;;5223435;28;20231;-63
2022/04/29 09:49:38;;;;;;;1.00;0.90;;;17.50;61.90;;;;;;5222786;28;20216;-62
2022/04/29 09:52:30;;;;;;;1.03;0.90;;;17.60;61.90;;;;;;5222500;28;20217;-63
2022/04/29 09:55:22;;;;;;;1.10;0.80;;;17.60;61.90;;;;;;5223469;28;20588;-62
2022/04/29 09:58:14;;;;;;;1.17;0.80;;;17.60;61.90;;;;;;5221052;28;20193;-62
2022/04/29 10:03:50;;;;;;;1.10;1.00;;;17.60;61.80;;;;;;5182293;28;20673;-68
2022/04/29 10:06:43;;;;;;;3.20;1.08;;;17.60;61.90;;;;;;5182441;28;20885;-68
2022/04/29 10:09:40;;;;;;;3.70;0.90;;;17.70;61.50;;;;;;5180943;28;20190;-68
2022/04/29 10:12:33;;;;;;;3.53;0.80;;;17.70;61.40;;;;;;5187642;28;20214;-68
2022/04/29 10:15:26;;;;;;;0.90;0.70;;;17.70;61.60;;;;;;5194857;28;20190;-68
2022/04/29 10:21:37;;;;;;;1.03;0.80;;;17.70;61.70;;;;;;5206799;28;20206;-68
2022/04/29 10:24:30;;;;;;;1.00;0.80;;;17.70;61.60;;;;;;5205183;28;20186;-68
2022/04/29 10:27:22;;;;;;;1.30;0.70;;;17.70;61.60;;;;;;5195268;28;20194;-67
2022/04/29 10:30:17;;;;;;;1.37;0.93;;;17.70;61.60;;;;;;5198980;28;20701;-68
2022/04/29 10:33:10;;;;;;;1.90;0.97;;;17.70;61.60;;;;;;5188810;28;20308;-68
2022/04/29 10:36:07;;;;;;;1.37;0.90;;;17.70;61.70;;;;;;5196197;28;20198;-68
2022/04/29 10:39:02;;;;;;;1.57;0.80;;;17.70;61.70;;;;;;5206403;28;20208;-67
2022/04/29 10:42:06;;;;;;;1.30;0.90;;;17.70;61.70;;;;;;5175171;28;20226;-69
2022/04/29 10:45:02;;;;;;;1.80;1.00;;;17.70;61.70;;;;;;5185603;28;20337;-68
2022/04/29 10:47:56;;;;;;;3.03;0.97;;;17.70;61.80;;;;;;5186446;28;20309;-67
2022/04/29 10:50:48;;;;;;;1.97;0.90;;;17.70;61.80;;;;;;5183285;28;20206;-68
2022/04/29 10:53:41;;;;;;;1.97;0.87;;;17.70;61.80;;;;;;5201363;28;20222;-67
2022/04/29 10:56:38;;;;;;;1.37;0.70;;;17.70;61.90;;;;;;5197459;28;20565;-67
2022/04/29 10:59:49;;;;;;;1.23;0.90;;;17.60;61.90;;;;;;5174124;28;20696;-68
2022/04/29 11:02:41;;;;;;;1.30;0.80;;;17.60;61.90;;;;;;5184719;28;20719;-66
2022/04/29 11:05:35;;;;;;;1.30;0.90;;;17.60;61.90;;;;;;5183425;28;20190;-68
2022/04/29 11:08:30;;;;;;;1.17;0.80;;;17.60;62.00;;;;;;5169490;28;20583;-68
2022/04/29 11:11:44;;;;;;;1.10;0.70;;;17.60;62.00;;;;;;5183962;28;20494;-68
2022/04/29 11:15:06;;;;;;;1.53;0.83;;;17.60;62.10;;;;;;5185330;28;20267;-68
2022/04/29 11:18:14;;;;;;;3.17;1.10;;;17.60;62.20;;;;;;5185480;28;20198;-68
2022/04/29 11:27:27;;;;;;;2.77;0.93;;;17.60;62.30;;;;;;5185271;28;20273;-66
2022/04/29 11:30:19;;;;;;;1.47;0.70;;;17.60;62.40;;;;;;5186139;28;20203;-66
2022/04/29 11:33:11;;;;;;;3.13;1.00;;;17.60;62.40;;;;;;5184068;28;20223;-68
2022/04/29 11:36:06;;;;;;;2.27;1.30;;;17.60;62.50;;;;;;5192081;28;20204;-66
2022/04/29 11:38:58;;;;;;;1.53;0.80;;;17.60;62.40;;;;;;5183197;28;20662;-68
2022/04/29 11:41:55;;;;;;;2.60;1.10;;;17.60;62.40;;;;;;5164863;28;20908;-65
2022/04/29 11:44:49;;;;;;;3.37;1.07;;;17.60;62.40;;;;;;5164348;28;20451;-66
2022/04/29 11:47:41;;;;;;;1.67;0.90;;;17.60;62.30;;;;;;5185357;28;20202;-65
2022/04/29 11:50:34;;;;;;;1.37;0.90;;;17.60;62.30;;;;;;5187624;28;20210;-66
2022/04/29 11:53:26;;;;;;;1.57;1.00;;;17.60;62.40;;;;;;5203897;28;20213;-66
2022/04/29 11:56:19;;;;;;;2.10;0.83;;;17.60;62.50;;;;;;5197657;28;20328;-65
2022/04/29 11:59:11;;;;;;;1.50;1.00;;;17.60;62.60;;;;;;5175582;28;20199;-64
2022/04/29 12:02:08;;;;;;;1.93;0.93;;;17.60;62.70;;;;;;5191530;28;20538;-65
2022/04/29 12:05:02;;;;;;;2.93;0.87;;;17.60;62.60;;;;;;5184921;28;20202;-66
2022/04/29 12:07:54;;;;;;;1.57;0.83;;;17.60;62.70;;;;;;5185057;28;20194;-64
2022/04/29 12:10:48;;;;;;;1.40;0.73;;;17.60;62.70;;;;;;5199571;28;20206;-66
2022/04/29 12:13:40;;;;;;;1.83;0.80;;;17.50;62.70;;;;;;5203632;28;20300;-65
2022/04/29 12:16:32;;;;;;;3.80;0.93;;;17.50;62.80;;;;;;5183074;28;20199;-65
2022/04/29 12:19:26;;;;;;;2.13;0.90;;;17.50;62.80;;;;;;5185182;28;20202;-65
2022/04/29 12:22:28;;;;;;;2.97;0.87;;;17.50;62.80;;;;;;5184667;28;20222;-65
2022/04/29 12:25:28;;;;;;;2.03;0.90;;;17.50;62.80;;;;;;5183381;28;20201;-65
2022/04/29 12:28:21;;;;;;;3.20;1.13;;;17.50;62.80;;;;;;5184299;28;20682;-65
2022/04/29 12:37:35;;;;;;;4.17;1.30;;;17.60;62.80;;;;;;5198400;28;20193;-67
2022/04/29 12:40:29;;;;;;;2.23;1.10;;;17.60;62.60;;;;;;5202754;28;20673;-67
2022/04/29 12:43:21;;;;;;;3.63;1.20;;;17.60;62.60;;;;;;5182957;28;20220;-67
2022/04/29 12:46:14;;;;;;;2.10;0.70;;;17.50;62.40;;;;;;5182987;28;20601;-67
2022/04/29 12:49:07;;;;;;;3.07;1.23;;;17.50;62.10;;;;;;5183493;28;20426;-66
2022/04/29 12:52:00;;;;;;;3.53;1.37;;;17.50;61.50;;;;;;5199129;28;20698;-66
2022/04/29 12:54:57;;;;;;;2.47;0.90;;;17.60;61.50;;;;;;5204168;28;20222;-66
2022/04/29 12:57:49;;;;;;;4.00;1.17;;;17.60;61.60;;;;;;5204519;28;20190;-67
2022/04/29 13:00:44;;;;;;;6.73;1.00;;;17.50;61.30;;;;;;5193418;28;20420;-67
2022/04/29 13:03:36;;;;;;;5.47;1.20;;;17.50;61.80;;;;;;5184129;28;20353;-67
2022/04/29 13:06:29;;;;;;;2.67;1.17;;;17.50;61.80;;;;;;5183940;28;20321;-67
2022/04/29 13:09:24;;;;;;;1.30;0.80;;;17.50;61.60;;;;;;5183610;28;20198;-67
2022/04/29 13:12:17;;;;;;;1.87;0.97;;;17.50;61.80;;;;;;5184327;28;20213;-67
2022/04/29 13:15:11;;;;;;;4.13;1.30;;;17.50;61.70;;;;;;5183412;28;20220;-67
2022/04/29 13:18:04;;;;;;;2.80;0.93;;;17.50;61.90;;;;;;5183242;28;20312;-68
2022/04/29 13:20:56;;;;;;;1.80;0.87;;;17.50;61.90;;;;;;5184095;28;20260;-67
2022/04/29 13:23:48;;;;;;;2.60;1.07;;;17.50;62.00;;;;;;5185062;28;20684;-67
2022/04/29 13:26:42;;;;;;;2.40;0.90;;;17.50;62.00;;;;;;5184153;28;20248;-66
2022/04/29 13:29:34;;;;;;;1.50;0.97;;;17.50;62.10;;;;;;5183658;28;20195;-66
2022/04/29 13:32:26;;;;;;;2.40;0.90;;;17.50;62.10;;;;;;5190998;28;20213;-66
2022/04/29 13:35:18;;;;;;;1.53;0.80;;;17.50;62.30;;;;;;5183059;28;20697;-66
2022/04/29 13:38:11;;;;;;;1.87;1.00;;;17.50;62.20;;;;;;5184440;28;20194;-67
2022/04/29 13:41:04;;;;;;;3.23;1.00;;;17.50;62.20;;;;;;5183734;28;20222;-66
2022/04/29 13:43:57;;;;;;;2.13;0.80;;;17.50;62.20;;;;;;5184896;28;20202;-68
2022/04/29 13:46:49;;;;;;;1.50;0.97;;;17.50;63.00;;;;;;5185988;28;20205;-68
2022/04/29 13:49:42;;;;;;;1.47;0.83;;;17.50;62.40;;;;;;5186858;28;20198;-68
2022/04/29 13:55:50;;;;;;;1.57;0.90;;;17.50;62.60;;;;;;5207819;28;20213;-66
2022/04/29 13:58:42;;;;;;;1.67;0.97;;;17.50;62.60;;;;;;5197683;28;20187;-70
2022/04/29 14:01:35;;;;;;;1.13;0.73;;;17.50;62.60;;;;;;5197613;28;20290;-69
2022/04/29 14:04:28;;;;;;;4.17;1.00;;;17.50;62.60;;;;;;5197009;28;20296;-69
2022/04/29 14:07:20;;;;;;;1.50;0.87;;;17.50;62.60;;;;;;5193720;28;20574;-70
2022/04/29 14:10:13;;;;;;;1.73;0.80;;;17.50;62.60;;;;;;5185367;28;20199;-69
2022/04/29 14:13:07;;;;;;;1.23;0.60;;;17.50;62.60;;;;;;5184500;28;20214;-69
2022/04/29 14:15:59;;;;;;;2.23;0.80;;;17.60;62.70;;;;;;5184710;28;20221;-70
2022/04/29 14:18:52;;;;;;;2.97;0.97;;;17.50;62.60;;;;;;5185319;28;20209;-71
2022/04/29 14:21:46;;;;;;;1.57;1.10;;;17.50;62.50;;;;;;5185732;28;20720;-68
2022/04/29 14:24:38;;;;;;;1.53;0.90;;;17.60;62.50;;;;;;5186418;28;20322;-69
2022/04/29 14:27:30;;;;;;;2.97;0.80;;;17.60;62.50;;;;;;5187050;28;20597;-69
2022/04/29 14:30:23;;;;;;;2.25;0.90;;;17.60;62.50;;;;;;5191340;28;20508;-68
2022/04/29 14:33:15;;;;;;;2.77;1.10;;;17.60;62.40;;;;;;5191072;28;20224;-68
2022/04/29 14:36:09;;;;;;;1.63;0.97;;;17.60;63.00;;;;;;5202572;28;20211;-68
2022/04/29 14:39:01;;;;;;;2.23;1.00;;;17.60;62.30;;;;;;5186981;28;20202;-69
2022/04/29 14:41:55;;;;;;;1.37;0.73;;;17.60;62.40;;;;;;5186368;28;20225;-68
2022/04/29 14:44:47;;;;;;;2.83;0.80;;;17.60;62.30;;;;;;5185899;28;20201;-68
2022/04/29 14:47:39;;;;;;;2.23;0.83;;;17.60;62.30;;;;;;5186594;28;20665;-68
2022/04/29 14:50:31;;;;;;;1.47;0.90;;;17.60;62.30;;;;;;5172353;28;20324;-68
2022/04/29 14:53:25;;;;;;;3.37;0.90;;;17.60;62.30;;;;;;5165728;28;20211;-68
2022/04/29 14:56:19;;;;;;;2.60;0.90;;;17.60;62.30;;;;;;5165655;28;20829;-68
2022/04/29 14:59:12;;;;;;;2.07;0.90;;;17.60;62.30;;;;;;5166254;28;20203;-69
2022/04/29 15:02:04;;;;;;;2.60;1.00;;;17.60;62.30;;;;;;5165783;28;20226;-68
2022/04/29 15:04:57;;;;;;;1.98;1.08;;;17.60;62.30;;;;;;5168269;28;20434;-71
2022/04/29 15:07:49;;;;;;;1.13;0.70;;;17.70;62.50;;;;;;5184844;28;20225;-71
2022/04/29 15:17:02;;;;;;;2.23;0.70;;;17.60;62.40;;;;;;5184917;28;20249;-70
2022/04/29 15:19:55;;;;;;;2.87;0.90;;;17.60;62.40;;;;;;5184250;28;20199;-70
2022/04/29 15:22:47;;;;;;;2.00;0.90;;;17.60;62.50;;;;;;5184698;28;20229;-72
2022/04/29 15:25:40;;;;;;;2.27;1.00;;;17.60;62.40;;;;;;5183664;28;20201;-70
2022/04/29 15:28:33;;;;;;;1.27;0.80;;;17.60;62.50;;;;;;5192545;28;20212;-70
2022/04/29 15:31:25;;;;;;;1.67;0.80;;;17.60;62.50;;;;;;5181530;28;20253;-71
2022/04/29 15:34:17;;;;;;;1.13;0.67;;;17.60;62.50;;;;;;5167363;28;20194;-70
2022/04/29 15:37:09;;;;;;;1.83;0.80;;;17.60;62.50;;;;;;5164355;28;20236;-70
2022/04/29 15:40:02;;;;;;;2.63;0.83;;;17.60;62.50;;;;;;5176760;28;20269;-70
2022/04/29 15:42:54;;;;;;;1.67;0.90;;;17.70;62.60;;;;;;5184615;28;20214;-71
2022/04/29 15:45:50;;;;;;;3.30;0.80;;;17.70;62.60;;;;;;5184233;28;20689;-70
2022/04/29 15:48:42;;;;;;;1.50;0.80;;;17.60;62.70;;;;;;5184249;28;20186;-70
2022/04/29 15:51:35;;;;;;;0.93;0.60;;;17.60;62.50;;;;;;5195575;28;20224;-70
2022/04/29 15:54:27;;;;;;;1.03;0.77;;;17.70;62.60;;;;;;5193546;28;20196;-71
2022/04/29 15:57:19;;;;;;;1.40;0.80;;;17.60;62.50;;;;;;5185384;28;20582;-70